createdAt,value
2023-05-11T00:00:36.389Z,9.29
2023-05-11T00:03:03.039Z,9.41
2023-05-11T00:05:29.627Z,9.48
2023-05-11T00:07:56.079Z,9.61
2023-05-11T00:10:22.844Z,9.65
2023-05-11T00:12:49.368Z,9.71
2023-05-11T00:15:15.890Z,9.52
2023-05-11T00:17:42.559Z,9.33
2023-05-11T00:20:09.680Z,9.36
2023-05-11T00:22:36.170Z,9.29
2023-05-11T00:25:02.854Z,9.19
2023-05-11T00:27:29.385Z,9.14
2023-05-11T00:29:55.841Z,9.13
2023-05-11T00:32:22.377Z,9.26
2023-05-11T00:34:48.833Z,9.38
2023-05-11T00:37:15.323Z,9.54
2023-05-11T00:39:41.894Z,9.67
2023-05-11T00:42:08.401Z,9.84
2023-05-11T00:44:34.869Z,9.88
2023-05-11T00:47:01.465Z,9.73
2023-05-11T00:49:28.425Z,9.68
2023-05-11T00:51:55.049Z,9.74
2023-05-11T00:54:21.636Z,9.83
2023-05-11T00:56:48.372Z,9.78
2023-05-11T00:59:15.967Z,9.72
2023-05-11T01:01:42.549Z,9.75
2023-05-11T01:04:09.762Z,9.69
2023-05-11T01:06:57.566Z,9.57
2023-05-11T01:09:58.186Z,9.57
2023-05-11T01:12:40.502Z,9.64
2023-05-11T01:15:12.456Z,9.63
2023-05-11T01:17:58.272Z,9.56
2023-05-11T01:20:29.387Z,9.66
2023-05-11T01:23:10.503Z,9.66
2023-05-11T01:26:08.211Z,9.60
2023-05-11T01:29:02.119Z,9.60
2023-05-11T01:31:31.981Z,9.60
2023-05-11T01:34:03.110Z,9.66
2023-05-11T01:36:34.385Z,9.71
2023-05-11T01:39:04.422Z,9.69
2023-05-11T01:41:34.834Z,9.67
2023-05-11T01:44:06.241Z,9.68
2023-05-11T01:46:34.109Z,9.75
2023-05-11T01:49:03.475Z,9.73
2023-05-11T01:51:34.520Z,9.71
2023-05-11T01:54:02.318Z,9.67
2023-05-11T01:56:30.231Z,9.70
2023-05-11T01:58:58.076Z,9.66
2023-05-11T02:01:25.773Z,9.71
2023-05-11T02:03:54.321Z,9.66
2023-05-11T02:06:22.705Z,9.58
2023-05-11T02:08:50.940Z,9.60
2023-05-11T02:11:20.396Z,9.56
2023-05-11T02:13:49.576Z,9.52
2023-05-11T02:16:19.016Z,9.60
2023-05-11T02:18:47.295Z,9.60
2023-05-11T02:21:16.165Z,9.60
2023-05-11T02:23:46.487Z,9.56
2023-05-11T02:26:16.679Z,9.59
2023-05-11T02:28:43.875Z,9.64
2023-05-11T02:31:16.639Z,9.68
2023-05-11T02:33:52.150Z,9.72
2023-05-11T02:36:21.658Z,9.71
2023-05-11T02:38:51.129Z,9.63
2023-05-11T02:41:26.005Z,9.66
2023-05-11T02:43:55.877Z,9.75
2023-05-11T02:46:28.129Z,9.80
2023-05-11T02:49:00.759Z,9.79
2023-05-11T02:51:41.151Z,9.76
2023-05-11T02:54:11.015Z,9.80
2023-05-11T02:56:41.441Z,9.80
2023-05-11T02:59:08.380Z,9.83
2023-05-11T03:01:35.369Z,9.81
2023-05-11T03:04:04.682Z,9.75
2023-05-11T03:06:32.128Z,9.71
2023-05-11T03:09:00.371Z,9.64
2023-05-11T03:11:28.315Z,9.67
2023-05-11T03:13:55.436Z,9.68
2023-05-11T03:16:23.604Z,9.78
2023-05-11T03:18:50.980Z,9.75
2023-05-11T03:21:21.291Z,9.71
2023-05-11T03:23:49.360Z,9.78
2023-05-11T03:26:18.728Z,9.74
2023-05-11T03:28:47.103Z,9.69
2023-05-11T03:31:14.170Z,9.68
2023-05-11T03:33:40.942Z,9.71
2023-05-11T03:36:10.578Z,9.65
2023-05-11T03:38:38.570Z,9.64
2023-05-11T03:41:06.975Z,9.67
2023-05-11T03:43:37.978Z,9.61
2023-05-11T03:46:05.255Z,9.52
2023-05-11T03:48:32.342Z,9.47
2023-05-11T03:50:59.507Z,9.43
2023-05-11T03:53:26.356Z,9.53
2023-05-11T03:55:52.961Z,9.49
2023-05-11T03:58:20.030Z,9.56
2023-05-11T04:00:46.703Z,9.48
2023-05-11T04:03:13.836Z,9.55
2023-05-11T04:05:41.349Z,9.58
2023-05-11T04:08:11.059Z,9.49
2023-05-11T04:10:38.277Z,9.53
2023-05-11T04:13:04.765Z,9.50
2023-05-11T04:15:31.250Z,9.58
2023-05-11T04:17:57.840Z,9.52
2023-05-11T04:20:24.350Z,9.54
2023-05-11T04:22:50.839Z,9.54
2023-05-11T04:25:17.712Z,9.49
2023-05-11T04:27:45.005Z,9.52
2023-05-11T04:30:11.864Z,9.52
2023-05-11T04:32:38.530Z,9.59
2023-05-11T04:35:05.405Z,9.59
2023-05-11T04:37:35.252Z,9.66
2023-05-11T04:40:04.528Z,9.66
2023-05-11T04:42:36.636Z,9.82
2023-05-11T04:45:05.354Z,9.75
2023-05-11T04:47:31.963Z,9.75
2023-05-11T04:49:59.078Z,9.75
2023-05-11T04:52:25.573Z,9.82
2023-05-11T04:54:53.001Z,9.85
2023-05-11T04:57:19.744Z,9.71
2023-05-11T04:59:47.422Z,9.79
2023-05-11T05:02:13.915Z,9.80
2023-05-11T05:04:40.388Z,9.94
2023-05-11T05:07:07.426Z,9.87
2023-05-11T05:09:33.892Z,9.91
2023-05-11T05:12:00.420Z,9.97
2023-05-11T05:14:26.853Z,9.98
2023-05-11T05:16:54.485Z,10.08
2023-05-11T05:19:21.319Z,10.10
2023-05-11T05:21:49.363Z,10.09
2023-05-11T05:24:15.937Z,10.08
2023-05-11T05:26:42.407Z,10.15
2023-05-11T05:29:11.257Z,10.23
2023-05-11T05:31:38.285Z,10.24
2023-05-11T05:34:04.891Z,10.30
2023-05-11T05:36:32.282Z,10.27
2023-05-11T05:38:58.840Z,10.34
2023-05-11T05:41:25.596Z,10.34
2023-05-11T05:43:52.146Z,10.30
2023-05-11T05:46:18.751Z,10.25
2023-05-11T05:48:45.226Z,10.35
2023-05-11T05:51:11.753Z,10.28
2023-05-11T05:53:38.408Z,10.37
2023-05-11T05:56:05.426Z,10.44
2023-05-11T05:58:32.243Z,10.53
2023-05-11T06:00:58.710Z,10.55
2023-05-11T06:03:28.434Z,10.56
2023-05-11T06:05:56.576Z,10.61
2023-05-11T06:08:23.488Z,10.58
2023-05-11T06:10:50.044Z,10.64
2023-05-11T06:13:17.382Z,10.87
2023-05-11T06:15:44.530Z,11.02
2023-05-11T06:18:24.772Z,10.87
2023-05-11T06:20:51.628Z,10.92
2023-05-11T06:23:18.567Z,10.89
2023-05-11T06:25:45.072Z,10.92
2023-05-11T06:28:12.457Z,11.02
2023-05-11T06:30:38.951Z,11.01
2023-05-11T06:33:07.749Z,11.24
2023-05-11T06:35:37.542Z,11.34
2023-05-11T06:38:06.728Z,11.31
2023-05-11T06:40:35.436Z,11.12
2023-05-11T06:43:02.039Z,11.14
2023-05-11T06:45:45.013Z,10.87
2023-05-11T06:48:12.265Z,11.02
2023-05-11T06:50:38.759Z,11.14
2023-05-11T06:53:06.090Z,10.89
2023-05-11T06:55:32.629Z,10.82
2023-05-11T06:57:59.321Z,10.85
2023-05-11T07:00:25.897Z,10.86
2023-05-11T07:02:52.828Z,10.96
2023-05-11T07:05:19.535Z,11.02
2023-05-11T07:07:46.389Z,11.10
2023-05-11T07:10:12.931Z,11.09
2023-05-11T07:12:39.380Z,11.14
2023-05-11T07:15:06.643Z,11.18
2023-05-11T07:17:33.148Z,11.30
2023-05-11T07:19:59.597Z,11.02
2023-05-11T07:22:26.227Z,11.03
2023-05-11T07:24:52.642Z,11.00
2023-05-11T07:27:19.107Z,11.23
2023-05-11T07:29:45.488Z,11.29
2023-05-11T07:32:12.046Z,11.11
2023-05-11T07:34:39.181Z,11.14
2023-05-11T07:37:05.929Z,11.00
2023-05-11T07:39:32.362Z,10.80
2023-05-11T07:41:58.816Z,11.00
2023-05-11T07:44:25.403Z,11.10
2023-05-11T07:46:51.907Z,11.08
2023-05-11T07:49:22.918Z,11.15
2023-05-11T07:51:57.716Z,11.08
2023-05-11T07:54:24.259Z,10.98
2023-05-11T07:56:50.889Z,10.88
2023-05-11T07:59:17.306Z,10.84
2023-05-11T08:01:43.959Z,10.84
2023-05-11T08:04:10.401Z,10.87
2023-05-11T08:06:36.856Z,10.80
2023-05-11T08:09:03.570Z,10.92
2023-05-11T08:11:30.060Z,10.97
2023-05-11T08:13:56.563Z,11.01
2023-05-11T08:16:23.058Z,10.93
2023-05-11T08:18:49.620Z,10.92
2023-05-11T08:21:16.137Z,11.00
2023-05-11T08:23:44.535Z,11.01
2023-05-11T08:26:11.635Z,10.98
2023-05-11T08:28:38.050Z,10.80
2023-05-11T08:31:05.513Z,11.14
2023-05-11T08:33:38.074Z,11.15
2023-05-11T08:36:06.507Z,11.19
2023-05-11T08:38:33.389Z,11.49
2023-05-11T08:41:01.879Z,11.61
2023-05-11T08:43:29.396Z,11.78
2023-05-11T08:46:01.050Z,11.96
2023-05-11T08:48:28.732Z,12.10
2023-05-11T08:50:55.192Z,12.22
2023-05-11T08:53:22.612Z,12.08
2023-05-11T08:55:51.416Z,12.03
2023-05-11T08:58:22.373Z,12.03
2023-05-11T09:00:49.579Z,12.29
2023-05-11T09:03:17.994Z,12.10
2023-05-11T09:05:46.865Z,12.30
2023-05-11T09:08:14.476Z,12.29
2023-05-11T09:10:42.286Z,12.45
2023-05-11T09:13:09.416Z,12.03
2023-05-11T09:15:38.079Z,11.79
2023-05-11T09:18:05.172Z,12.07
2023-05-11T09:20:33.976Z,12.07
2023-05-11T09:23:01.251Z,12.09
2023-05-11T09:25:33.063Z,12.13
2023-05-11T09:28:00.246Z,12.35
2023-05-11T09:30:27.653Z,12.33
2023-05-11T09:32:56.584Z,12.08
2023-05-11T09:35:23.115Z,12.15
2023-05-11T09:38:02.243Z,12.29
2023-05-11T09:40:34.176Z,12.20
2023-05-11T09:43:02.539Z,12.21
2023-05-11T09:45:43.372Z,12.45
2023-05-11T09:48:21.889Z,11.89
2023-05-11T09:50:49.340Z,11.96
2023-05-11T09:53:16.771Z,12.03
2023-05-11T09:55:54.160Z,12.23
2023-05-11T09:58:21.215Z,12.32
2023-05-11T10:00:51.988Z,12.53
2023-05-11T10:03:18.879Z,12.35
2023-05-11T10:06:01.567Z,12.42
2023-05-11T10:08:30.405Z,12.41
2023-05-11T10:10:57.329Z,12.36
2023-05-11T10:13:24.302Z,12.48
2023-05-11T10:15:57.048Z,12.30
2023-05-11T10:18:24.034Z,12.42
2023-05-11T10:20:51.247Z,12.47
2023-05-11T10:23:18.781Z,12.53
2023-05-11T10:25:45.891Z,12.43
2023-05-11T10:28:12.558Z,12.44
2023-05-11T10:30:40.758Z,12.33
2023-05-11T10:33:08.532Z,12.28
2023-05-11T10:35:38.028Z,12.55
2023-05-11T10:38:04.626Z,12.64
2023-05-11T10:40:38.766Z,12.56
2023-05-11T10:43:23.648Z,12.58
2023-05-11T10:46:18.072Z,12.67
2023-05-11T10:48:47.304Z,12.61
2023-05-11T10:51:35.395Z,12.34
2023-05-11T10:54:40.154Z,12.67
2023-05-11T10:57:24.875Z,12.54
2023-05-11T10:59:54.245Z,12.37
2023-05-11T11:02:22.032Z,12.50
2023-05-11T11:04:52.408Z,12.64
2023-05-11T11:07:19.795Z,12.96
2023-05-11T11:10:07.262Z,12.55
2023-05-11T11:12:36.958Z,12.96
2023-05-11T11:15:06.252Z,12.96
2023-05-11T11:17:35.080Z,12.84
2023-05-11T11:20:10.244Z,12.85
2023-05-11T11:22:41.307Z,13.13
2023-05-11T11:25:15.596Z,12.99
2023-05-11T11:27:44.960Z,13.29
2023-05-11T11:30:22.437Z,13.52
2023-05-11T11:33:07.310Z,13.67
2023-05-11T11:35:39.667Z,13.58
2023-05-11T11:38:07.525Z,13.69
2023-05-11T11:43:19.719Z,13.66
2023-05-11T11:45:52.521Z,13.55
2023-05-11T11:48:28.962Z,13.78
2023-05-11T11:51:13.836Z,13.85
2023-05-11T11:53:44.648Z,13.68
2023-05-11T11:56:13.790Z,13.81
2023-05-11T11:58:40.196Z,13.79
2023-05-11T12:01:11.918Z,13.71
2023-05-11T12:03:39.271Z,13.93
2023-05-11T12:06:07.909Z,13.82
2023-05-11T12:08:35.536Z,13.83
2023-05-11T12:11:03.201Z,13.69
2023-05-11T12:13:30.144Z,13.90
2023-05-11T12:16:20.827Z,14.24
2023-05-11T12:18:59.226Z,13.90
2023-05-11T12:21:29.821Z,14.38
2023-05-11T12:23:59.091Z,14.42
2023-05-11T12:26:27.194Z,14.47
2023-05-11T12:29:07.565Z,14.46
2023-05-11T12:31:39.081Z,14.39
2023-05-11T12:34:05.633Z,14.41
2023-05-11T12:36:34.295Z,14.30
2023-05-11T12:39:00.992Z,14.51
2023-05-11T12:41:27.559Z,14.72
2023-05-11T12:43:55.284Z,14.48
2023-05-11T12:46:23.360Z,14.17
2023-05-11T12:48:51.574Z,14.32
2023-05-11T12:51:42.457Z,14.27
2023-05-11T12:54:08.934Z,14.61
2023-05-11T12:56:48.532Z,14.85
2023-05-11T12:59:44.314Z,15.11
2023-05-11T13:02:17.370Z,15.40
2023-05-11T13:04:45.374Z,15.13
2023-05-11T13:07:13.550Z,14.69
2023-05-11T13:09:41.195Z,14.99
2023-05-11T13:12:16.526Z,15.30
2023-05-11T13:14:47.968Z,15.53
2023-05-11T13:17:28.383Z,15.64
2023-05-11T13:19:54.853Z,15.69
2023-05-11T13:22:21.291Z,15.22
2023-05-11T13:24:47.815Z,14.89
2023-05-11T13:27:14.232Z,15.01
2023-05-11T13:29:40.647Z,14.40
2023-05-11T13:32:07.566Z,14.72
2023-05-11T13:34:34.074Z,14.85
2023-05-11T13:37:00.597Z,15.00
2023-05-11T13:39:27.009Z,15.19
2023-05-11T13:41:55.658Z,14.89
2023-05-11T13:44:22.490Z,15.08
2023-05-11T13:46:49.101Z,15.29
2023-05-11T13:49:15.705Z,15.03
2023-05-11T13:51:42.161Z,14.73
2023-05-11T13:54:08.580Z,14.81
2023-05-11T13:56:35.274Z,14.90
2023-05-11T13:59:01.711Z,14.78
2023-05-11T14:01:28.248Z,14.77
2023-05-11T14:03:56.366Z,15.07
2023-05-11T14:06:24.488Z,14.94
2023-05-11T14:08:51.518Z,15.52
2023-05-11T14:11:17.940Z,15.77
2023-05-11T14:13:44.457Z,15.61
2023-05-11T14:16:11.096Z,16.15
2023-05-11T14:18:37.704Z,16.22
2023-05-11T14:21:04.218Z,16.07
2023-05-11T14:23:30.755Z,16.18
2023-05-11T14:25:57.249Z,16.10
2023-05-11T14:28:23.955Z,15.94
2023-05-11T14:30:50.563Z,15.36
2023-05-11T14:33:17.126Z,15.14
2023-05-11T14:35:43.776Z,15.26
2023-05-11T14:38:10.338Z,15.45
2023-05-11T14:40:36.813Z,15.59
2023-05-11T14:43:03.276Z,15.61
2023-05-11T14:45:29.818Z,15.43
2023-05-11T14:47:56.357Z,15.24
2023-05-11T14:50:22.892Z,15.32
2023-05-11T14:52:49.654Z,15.54
2023-05-11T14:55:16.077Z,15.82
2023-05-11T14:57:43.135Z,15.99
2023-05-11T15:00:10.990Z,15.86
2023-05-11T15:02:37.416Z,15.48
2023-05-11T15:05:04.831Z,15.49
2023-05-11T15:07:31.710Z,15.37
2023-05-11T15:09:58.206Z,15.66
2023-05-11T15:12:24.741Z,15.45
2023-05-11T15:14:51.800Z,15.79
2023-05-11T15:17:18.297Z,15.69
2023-05-11T15:19:44.965Z,15.80
2023-05-11T15:22:11.565Z,15.93
2023-05-11T15:24:38.777Z,16.10
2023-05-11T15:27:05.547Z,15.82
2023-05-11T15:29:32.707Z,16.15
2023-05-11T15:31:59.207Z,16.05
2023-05-11T15:34:26.355Z,15.74
2023-05-11T15:36:52.883Z,15.77
2023-05-11T15:39:19.604Z,15.31
2023-05-11T15:41:46.541Z,15.66
2023-05-11T15:44:13.466Z,15.76
2023-05-11T15:46:40.006Z,16.13
2023-05-11T15:49:06.565Z,16.25
2023-05-11T15:51:33.207Z,16.13
2023-05-11T15:53:59.798Z,15.97
2023-05-11T15:56:26.371Z,15.45
2023-05-11T15:58:52.916Z,15.52
2023-05-11T16:01:19.578Z,15.29
2023-05-11T16:03:46.178Z,15.18
2023-05-11T16:06:12.642Z,15.11
2023-05-11T16:08:39.120Z,14.80
2023-05-11T16:11:05.544Z,14.54
2023-05-11T16:13:32.132Z,14.44
2023-05-11T16:15:59.384Z,14.57
2023-05-11T16:18:25.908Z,14.91
2023-05-11T16:20:52.412Z,14.85
2023-05-11T16:23:18.893Z,14.84
2023-05-11T16:25:45.464Z,14.94
2023-05-11T16:28:12.960Z,15.14
2023-05-11T16:30:39.467Z,15.16
2023-05-11T16:33:06.726Z,14.83
2023-05-11T16:35:33.369Z,14.95
2023-05-11T16:37:59.929Z,15.05
2023-05-11T16:40:26.912Z,15.22
2023-05-11T16:42:53.780Z,15.13
2023-05-11T16:45:20.305Z,15.05
2023-05-11T16:47:47.506Z,14.66
2023-05-11T16:50:14.776Z,14.37
2023-05-11T16:52:42.229Z,14.30
2023-05-11T16:55:09.482Z,14.12
2023-05-11T16:57:36.008Z,14.05
2023-05-11T17:00:02.889Z,14.18
2023-05-11T17:02:29.758Z,14.01
2023-05-11T17:04:56.302Z,13.75
2023-05-11T17:07:22.886Z,13.58
2023-05-11T17:09:52.066Z,13.35
2023-05-11T17:12:18.523Z,13.41
2023-05-11T17:14:44.952Z,13.48
2023-05-11T17:17:11.548Z,13.45
2023-05-11T17:19:38.280Z,13.48
2023-05-11T17:22:05.089Z,13.17
2023-05-11T17:24:31.601Z,13.14
2023-05-11T17:26:58.030Z,13.04
2023-05-11T17:29:24.490Z,12.98
2023-05-11T17:31:51.877Z,12.91
2023-05-11T17:34:19.092Z,13.01
2023-05-11T17:36:46.071Z,12.82
2023-05-11T17:39:12.716Z,12.81
2023-05-11T17:41:39.420Z,12.86
2023-05-11T17:44:05.894Z,12.92
2023-05-11T17:46:32.525Z,12.91
2023-05-11T17:48:59.087Z,12.81
2023-05-11T17:51:25.565Z,12.70
2023-05-11T17:53:52.106Z,12.73
2023-05-11T17:56:19.089Z,12.51
2023-05-11T17:58:45.605Z,12.46
2023-05-11T18:01:16.619Z,12.43
2023-05-11T18:03:43.766Z,12.48
2023-05-11T18:06:10.545Z,12.49
2023-05-11T18:08:36.971Z,12.36
2023-05-11T18:11:03.564Z,12.47
2023-05-11T18:13:30.942Z,12.51
2023-05-11T18:15:58.509Z,12.57
2023-05-11T18:18:25.509Z,12.69
2023-05-11T18:20:52.043Z,12.76
2023-05-11T18:23:18.542Z,12.61
2023-05-11T18:25:44.993Z,12.43
2023-05-11T18:28:11.439Z,12.44
2023-05-11T18:30:38.142Z,12.47
2023-05-11T18:33:04.709Z,12.45
2023-05-11T18:35:31.396Z,12.53
2023-05-11T18:37:59.678Z,12.44
2023-05-11T18:40:27.115Z,12.26
2023-05-11T18:42:54.070Z,12.32
2023-05-11T18:45:20.485Z,12.30
2023-05-11T18:47:47.036Z,12.01
2023-05-11T18:50:13.669Z,11.85
2023-05-11T18:52:40.240Z,11.81
2023-05-11T18:55:07.286Z,11.76
2023-05-11T18:57:34.399Z,11.83
2023-05-11T19:00:01.185Z,11.78
2023-05-11T19:02:27.949Z,11.78
2023-05-11T19:04:54.508Z,11.72
2023-05-11T19:07:20.963Z,11.63
2023-05-11T19:09:47.433Z,11.56
2023-05-11T19:12:13.901Z,11.51
2023-05-11T19:14:40.478Z,11.45
2023-05-11T19:17:07.041Z,11.42
2023-05-11T19:19:34.139Z,11.40
2023-05-11T19:22:00.895Z,11.41
2023-05-11T19:24:28.130Z,11.34
2023-05-11T19:27:05.915Z,11.26
2023-05-11T19:29:33.559Z,11.08
2023-05-11T19:32:00.093Z,10.98
2023-05-11T19:34:26.852Z,10.52
2023-05-11T19:36:53.311Z,10.34
2023-05-11T19:39:19.762Z,10.33
2023-05-11T19:41:46.260Z,10.34
2023-05-11T19:44:12.750Z,10.28
2023-05-11T19:46:46.618Z,10.28
2023-05-11T19:49:14.916Z,10.26
2023-05-11T19:51:41.406Z,10.19
2023-05-11T19:54:07.897Z,10.19
2023-05-11T19:56:34.358Z,10.10
2023-05-11T19:59:02.551Z,10.16
2023-05-11T20:01:29.134Z,10.22
2023-05-11T20:03:56.303Z,10.41
2023-05-11T20:06:23.321Z,10.53
2023-05-11T20:08:51.502Z,10.49
2023-05-11T20:11:18.225Z,10.65
2023-05-11T20:13:45.036Z,10.44
2023-05-11T20:16:11.510Z,10.58
2023-05-11T20:18:38.079Z,10.74
2023-05-11T20:21:04.648Z,10.84
2023-05-11T20:23:31.185Z,10.87
2023-05-11T20:25:57.733Z,10.84
2023-05-11T20:28:27.209Z,10.88
2023-05-11T20:30:56.091Z,10.82
2023-05-11T20:35:53.439Z,10.64
2023-05-11T20:38:20.610Z,10.74
2023-05-11T20:40:47.127Z,10.57
2023-05-11T20:43:14.736Z,10.32
2023-05-11T20:45:41.986Z,10.25
2023-05-11T20:48:09.038Z,10.11
2023-05-11T20:50:35.682Z,10.15
2023-05-11T20:53:02.234Z,10.28
2023-05-11T20:55:28.733Z,10.07
2023-05-11T20:57:55.265Z,10.10
2023-05-11T21:00:22.015Z,10.21
2023-05-11T21:02:48.854Z,10.37
2023-05-11T21:05:15.550Z,10.47
2023-05-11T21:07:41.986Z,10.60
2023-05-11T21:10:11.601Z,10.62
2023-05-11T21:12:38.033Z,10.64
2023-05-11T21:15:05.159Z,10.60
2023-05-11T21:17:31.578Z,10.59
2023-05-11T21:19:57.997Z,10.65
2023-05-11T21:22:24.510Z,10.64
2023-05-11T21:24:51.020Z,10.53
2023-05-11T21:27:17.650Z,10.50
2023-05-11T21:29:44.299Z,10.58
2023-05-11T21:32:10.792Z,10.68
2023-05-11T21:34:37.326Z,10.63
2023-05-11T21:37:04.000Z,10.64
2023-05-11T21:39:40.162Z,10.56
2023-05-11T21:42:07.445Z,10.54
2023-05-11T21:44:33.954Z,10.60
2023-05-11T21:47:00.430Z,10.48
2023-05-11T21:49:26.871Z,10.46
2023-05-11T21:51:53.422Z,10.47
2023-05-11T21:54:22.612Z,10.50
2023-05-11T21:56:49.934Z,10.57
2023-05-11T21:59:19.734Z,10.60
2023-05-11T22:01:47.891Z,10.63
2023-05-11T22:04:14.970Z,10.59
2023-05-11T22:06:41.660Z,10.57
2023-05-11T22:09:08.163Z,10.57
2023-05-11T22:11:38.255Z,10.53
2023-05-11T22:14:05.096Z,10.63
2023-05-11T22:16:31.603Z,10.60
2023-05-11T22:18:58.080Z,10.61
2023-05-11T22:21:27.263Z,10.59
2023-05-11T22:23:53.744Z,10.56
2023-05-11T22:26:20.187Z,10.60
2023-05-11T22:28:47.115Z,10.57
2023-05-11T22:31:13.643Z,10.28
2023-05-11T22:33:40.094Z,10.12
2023-05-11T22:36:06.800Z,10.11
2023-05-11T22:38:34.240Z,9.98
2023-05-11T22:41:00.779Z,9.86
2023-05-11T22:43:27.453Z,9.78
2023-05-11T22:45:53.928Z,9.84
2023-05-11T22:48:20.403Z,9.84
2023-05-11T22:50:47.604Z,9.78
2023-05-11T22:53:14.707Z,9.63
2023-05-11T22:55:42.133Z,9.54
2023-05-11T22:58:08.624Z,9.61
2023-05-11T23:00:35.681Z,9.70
2023-05-11T23:03:03.239Z,9.74
2023-05-11T23:05:30.291Z,9.75
2023-05-11T23:07:59.581Z,9.78
2023-05-11T23:10:30.179Z,9.89
2023-05-11T23:12:56.761Z,9.97
2023-05-11T23:15:23.259Z,10.04
2023-05-11T23:17:49.868Z,10.00
2023-05-11T23:20:16.874Z,9.85
2023-05-11T23:22:43.590Z,9.76
2023-05-11T23:25:10.587Z,9.81
2023-05-11T23:27:37.098Z,9.95
2023-05-11T23:30:03.894Z,10.02
2023-05-11T23:32:30.362Z,10.08
2023-05-11T23:34:56.829Z,9.95
2023-05-11T23:37:23.255Z,9.91
2023-05-11T23:39:49.675Z,9.82
2023-05-11T23:42:16.169Z,9.87
2023-05-11T23:44:42.597Z,9.92
2023-05-11T23:47:09.470Z,9.82
2023-05-11T23:49:36.009Z,9.88
2023-05-11T23:52:02.506Z,9.89
2023-05-11T23:54:28.952Z,9.96
2023-05-11T23:56:55.446Z,10.06
2023-05-11T23:59:21.895Z,10.13
